sensor_id;sensor_type;location;lat;lon;timestamp;P1;durP1;ratioP1;P2;durP2;ratioP2
6755;SDS011;3415;51.148;7.014;2022-10-03T00:04:18;16.40;;;5.67;;
6755;SDS011;3415;51.148;7.014;2022-10-03T00:06:59;9.30;;;5.67;;
6755;SDS011;3415;51.148;7.014;2022-10-03T00:09:37;8.67;;;4.40;;
6755;SDS011;3415;51.148;7.014;2022-10-03T00:12:16;12.70;;;5.87;;
6755;SDS011;3415;51.148;7.014;2022-10-03T00:15:03;11.13;;;4.90;;
6755;SDS011;3415;51.148;7.014;2022-10-03T00:17:37;11.63;;;5.40;;
6755;SDS011;3415;51.148;7.014;2022-10-03T00:20:27;9.27;;;4.70;;
6755;SDS011;3415;51.148;7.014;2022-10-03T00:23:03;17.50;;;4.43;;
6755;SDS011;3415;51.148;7.014;2022-10-03T00:25:38;9.90;;;4.13;;
6755;SDS011;3415;51.148;7.014;2022-10-03T00:28:12;16.83;;;5.20;;
6755;SDS011;3415;51.148;7.014;2022-10-03T00:30:53;10.17;;;4.30;;
6755;SDS011;3415;51.148;7.014;2022-10-03T00:33:32;11.43;;;4.40;;
6755;SDS011;3415;51.148;7.014;2022-10-03T00:36:10;7.67;;;3.83;;
6755;SDS011;3415;51.148;7.014;2022-10-03T00:41:41;12.43;;;4.23;;
6755;SDS011;3415;51.148;7.014;2022-10-03T00:47:27;12.90;;;4.10;;
6755;SDS011;3415;51.148;7.014;2022-10-03T00:53:28;6.63;;;3.47;;
6755;SDS011;3415;51.148;7.014;2022-10-03T00:56:05;8.03;;;3.57;;
6755;SDS011;3415;51.148;7.014;2022-10-03T00:59:07;6.47;;;4.07;;
6755;SDS011;3415;51.148;7.014;2022-10-03T01:01:51;10.37;;;4.07;;
6755;SDS011;3415;51.148;7.014;2022-10-03T01:04:28;6.57;;;3.80;;
6755;SDS011;3415;51.148;7.014;2022-10-03T01:07:18;8.70;;;3.70;;
6755;SDS011;3415;51.148;7.014;2022-10-03T01:09:59;5.50;;;3.53;;
6755;SDS011;3415;51.148;7.014;2022-10-03T01:12:42;6.77;;;3.40;;
6755;SDS011;3415;51.148;7.014;2022-10-03T01:15:21;4.90;;;3.20;;
6755;SDS011;3415;51.148;7.014;2022-10-03T01:18:14;6.90;;;3.67;;
6755;SDS011;3415;51.148;7.014;2022-10-03T01:20:53;7.20;;;3.90;;
6755;SDS011;3415;51.148;7.014;2022-10-03T01:23:37;7.30;;;3.70;;
6755;SDS011;3415;51.148;7.014;2022-10-03T01:26:48;11.80;;;2.90;;
6755;SDS011;3415;51.148;7.014;2022-10-03T01:29:23;8.40;;;3.30;;
6755;SDS011;3415;51.148;7.014;2022-10-03T01:32:14;7.43;;;3.90;;
6755;SDS011;3415;51.148;7.014;2022-10-03T01:34:50;6.37;;;3.50;;
6755;SDS011;3415;51.148;7.014;2022-10-03T01:37:22;8.13;;;3.40;;
6755;SDS011;3415;51.148;7.014;2022-10-03T01:39:56;6.83;;;3.13;;
6755;SDS011;3415;51.148;7.014;2022-10-03T01:42:36;9.27;;;3.07;;
6755;SDS011;3415;51.148;7.014;2022-10-03T01:45:14;8.00;;;3.63;;
6755;SDS011;3415;51.148;7.014;2022-10-03T01:47:54;5.03;;;3.20;;
6755;SDS011;3415;51.148;7.014;2022-10-03T01:50:27;8.13;;;3.63;;
6755;SDS011;3415;51.148;7.014;2022-10-03T01:53:02;14.73;;;3.37;;
6755;SDS011;3415;51.148;7.014;2022-10-03T01:55:36;8.93;;;3.43;;
6755;SDS011;3415;51.148;7.014;2022-10-03T01:58:10;7.60;;;3.70;;
6755;SDS011;3415;51.148;7.014;2022-10-03T02:00:46;11.30;;;3.40;;
6755;SDS011;3415;51.148;7.014;2022-10-03T02:03:22;11.80;;;3.27;;
6755;SDS011;3415;51.148;7.014;2022-10-03T02:05:56;7.43;;;3.63;;
6755;SDS011;3415;51.148;7.014;2022-10-03T02:08:27;8.10;;;3.73;;
6755;SDS011;3415;51.148;7.014;2022-10-03T02:11:02;10.47;;;3.00;;
6755;SDS011;3415;51.148;7.014;2022-10-03T02:13:38;5.50;;;3.70;;
6755;SDS011;3415;51.148;7.014;2022-10-03T02:16:12;11.47;;;3.87;;
6755;SDS011;3415;51.148;7.014;2022-10-03T02:18:44;6.47;;;3.07;;
6755;SDS011;3415;51.148;7.014;2022-10-03T02:21:17;8.57;;;3.70;;
6755;SDS011;3415;51.148;7.014;2022-10-03T02:23:46;5.93;;;3.07;;
6755;SDS011;3415;51.148;7.014;2022-10-03T02:26:24;13.97;;;3.43;;
6755;SDS011;3415;51.148;7.014;2022-10-03T02:29:17;7.23;;;3.17;;
6755;SDS011;3415;51.148;7.014;2022-10-03T02:32:11;7.60;;;3.03;;
6755;SDS011;3415;51.148;7.014;2022-10-03T02:35:12;11.60;;;3.50;;
6755;SDS011;3415;51.148;7.014;2022-10-03T02:38:19;9.20;;;3.50;;
6755;SDS011;3415;51.148;7.014;2022-10-03T02:41:04;12.90;;;3.77;;
6755;SDS011;3415;51.148;7.014;2022-10-03T02:46:42;7.80;;;3.47;;
6755;SDS011;3415;51.148;7.014;2022-10-03T02:52:35;9.57;;;3.90;;
6755;SDS011;3415;51.148;7.014;2022-10-03T02:55:45;8.60;;;3.23;;
6755;SDS011;3415;51.148;7.014;2022-10-03T02:58:39;5.83;;;2.93;;
6755;SDS011;3415;51.148;7.014;2022-10-03T03:01:31;8.13;;;3.37;;
6755;SDS011;3415;51.148;7.014;2022-10-03T03:04:27;9.43;;;3.37;;
6755;SDS011;3415;51.148;7.014;2022-10-03T03:07:16;5.37;;;2.93;;
6755;SDS011;3415;51.148;7.014;2022-10-03T03:13:17;8.80;;;2.93;;
6755;SDS011;3415;51.148;7.014;2022-10-03T03:16:11;8.77;;;4.00;;
6755;SDS011;3415;51.148;7.014;2022-10-03T03:19:04;8.00;;;3.43;;
6755;SDS011;3415;51.148;7.014;2022-10-03T03:21:41;9.53;;;3.33;;
6755;SDS011;3415;51.148;7.014;2022-10-03T03:24:23;6.27;;;3.33;;
6755;SDS011;3415;51.148;7.014;2022-10-03T03:27:20;6.30;;;3.60;;
6755;SDS011;3415;51.148;7.014;2022-10-03T03:30:00;8.83;;;3.97;;
6755;SDS011;3415;51.148;7.014;2022-10-03T03:32:36;6.03;;;3.13;;
6755;SDS011;3415;51.148;7.014;2022-10-03T03:35:15;7.60;;;3.50;;
6755;SDS011;3415;51.148;7.014;2022-10-03T03:37:54;7.60;;;3.90;;
6755;SDS011;3415;51.148;7.014;2022-10-03T03:40:42;7.60;;;3.83;;
6755;SDS011;3415;51.148;7.014;2022-10-03T03:43:23;12.23;;;4.33;;
6755;SDS011;3415;51.148;7.014;2022-10-03T03:46:04;11.80;;;4.27;;
6755;SDS011;3415;51.148;7.014;2022-10-03T03:48:43;11.97;;;4.17;;
6755;SDS011;3415;51.148;7.014;2022-10-03T03:51:31;8.20;;;4.00;;
6755;SDS011;3415;51.148;7.014;2022-10-03T03:57:12;10.67;;;3.97;;
6755;SDS011;3415;51.148;7.014;2022-10-03T04:00:07;9.40;;;3.80;;
6755;SDS011;3415;51.148;7.014;2022-10-03T04:02:44;13.03;;;4.30;;
6755;SDS011;3415;51.148;7.014;2022-10-03T04:05:26;11.23;;;4.10;;
6755;SDS011;3415;51.148;7.014;2022-10-03T04:08:11;9.63;;;4.37;;
6755;SDS011;3415;51.148;7.014;2022-10-03T04:10:52;15.33;;;4.90;;
6755;SDS011;3415;51.148;7.014;2022-10-03T04:13:38;13.83;;;4.57;;
6755;SDS011;3415;51.148;7.014;2022-10-03T04:16:16;8.80;;;3.87;;
6755;SDS011;3415;51.148;7.014;2022-10-03T04:19:07;18.07;;;3.90;;
6755;SDS011;3415;51.148;7.014;2022-10-03T04:21:53;6.83;;;3.83;;
6755;SDS011;3415;51.148;7.014;2022-10-03T04:24:46;7.83;;;3.33;;
6755;SDS011;3415;51.148;7.014;2022-10-03T04:27:53;6.67;;;3.20;;
6755;SDS011;3415;51.148;7.014;2022-10-03T04:30:45;11.17;;;3.60;;
6755;SDS011;3415;51.148;7.014;2022-10-03T04:33:23;6.40;;;3.90;;
6755;SDS011;3415;51.148;7.014;2022-10-03T04:36:14;7.60;;;4.13;;
6755;SDS011;3415;51.148;7.014;2022-10-03T04:39:07;12.87;;;4.10;;
6755;SDS011;3415;51.148;7.014;2022-10-03T04:41:44;8.67;;;3.80;;
6755;SDS011;3415;51.148;7.014;2022-10-03T04:44:25;21.30;;;5.60;;
6755;SDS011;3415;51.148;7.014;2022-10-03T04:47:05;16.10;;;4.67;;
6755;SDS011;3415;51.148;7.014;2022-10-03T04:49:41;8.47;;;4.10;;
6755;SDS011;3415;51.148;7.014;2022-10-03T04:52:16;9.63;;;5.00;;
6755;SDS011;3415;51.148;7.014;2022-10-03T04:54:49;6.70;;;3.70;;
6755;SDS011;3415;51.148;7.014;2022-10-03T04:57:24;12.43;;;5.33;;
6755;SDS011;3415;51.148;7.014;2022-10-03T05:00:01;9.20;;;4.00;;
6755;SDS011;3415;51.148;7.014;2022-10-03T05:02:40;10.93;;;4.13;;
6755;SDS011;3415;51.148;7.014;2022-10-03T05:05:17;9.43;;;3.87;;
6755;SDS011;3415;51.148;7.014;2022-10-03T05:08:03;19.13;;;4.77;;
6755;SDS011;3415;51.148;7.014;2022-10-03T05:10:41;11.57;;;4.40;;
6755;SDS011;3415;51.148;7.014;2022-10-03T05:13:18;8.10;;;4.43;;
6755;SDS011;3415;51.148;7.014;2022-10-03T05:15:58;12.03;;;3.87;;
6755;SDS011;3415;51.148;7.014;2022-10-03T05:18:33;7.70;;;4.60;;
6755;SDS011;3415;51.148;7.014;2022-10-03T05:21:07;8.77;;;3.93;;
6755;SDS011;3415;51.148;7.014;2022-10-03T05:23:44;11.30;;;4.20;;
6755;SDS011;3415;51.148;7.014;2022-10-03T05:26:21;9.53;;;4.30;;
6755;SDS011;3415;51.148;7.014;2022-10-03T05:28:52;12.00;;;4.20;;
6755;SDS011;3415;51.148;7.014;2022-10-03T05:31:29;9.43;;;4.07;;
6755;SDS011;3415;51.148;7.014;2022-10-03T05:34:15;15.80;;;7.13;;
6755;SDS011;3415;51.148;7.014;2022-10-03T05:36:53;10.20;;;4.40;;
6755;SDS011;3415;51.148;7.014;2022-10-03T05:39:29;13.20;;;4.70;;
6755;SDS011;3415;51.148;7.014;2022-10-03T05:42:10;12.07;;;4.27;;
6755;SDS011;3415;51.148;7.014;2022-10-03T05:44:48;9.00;;;4.60;;
6755;SDS011;3415;51.148;7.014;2022-10-03T05:47:27;13.23;;;3.67;;
6755;SDS011;3415;51.148;7.014;2022-10-03T05:53:35;10.10;;;4.60;;
6755;SDS011;3415;51.148;7.014;2022-10-03T05:56:26;10.50;;;5.00;;
6755;SDS011;3415;51.148;7.014;2022-10-03T05:59:17;7.13;;;4.07;;
6755;SDS011;3415;51.148;7.014;2022-10-03T06:02:19;21.63;;;4.87;;
6755;SDS011;3415;51.148;7.014;2022-10-03T06:05:21;21.50;;;6.10;;
6755;SDS011;3415;51.148;7.014;2022-10-03T06:08:09;10.23;;;4.90;;
6755;SDS011;3415;51.148;7.014;2022-10-03T06:11:11;9.97;;;5.00;;
6755;SDS011;3415;51.148;7.014;2022-10-03T06:13:50;8.13;;;4.67;;
6755;SDS011;3415;51.148;7.014;2022-10-03T06:16:32;11.87;;;4.47;;
6755;SDS011;3415;51.148;7.014;2022-10-03T06:19:08;14.70;;;5.37;;
6755;SDS011;3415;51.148;7.014;2022-10-03T06:21:59;10.63;;;5.37;;
6755;SDS011;3415;51.148;7.014;2022-10-03T06:25:07;12.50;;;5.63;;
6755;SDS011;3415;51.148;7.014;2022-10-03T06:28:00;12.30;;;5.70;;
6755;SDS011;3415;51.148;7.014;2022-10-03T06:34:14;9.97;;;4.60;;
6755;SDS011;3415;51.148;7.014;2022-10-03T06:40:12;9.17;;;4.60;;
6755;SDS011;3415;51.148;7.014;2022-10-03T06:46:05;11.20;;;5.00;;
6755;SDS011;3415;51.148;7.014;2022-10-03T06:49:01;12.50;;;5.00;;
6755;SDS011;3415;51.148;7.014;2022-10-03T06:51:58;6.80;;;4.23;;
6755;SDS011;3415;51.148;7.014;2022-10-03T06:57:50;18.73;;;4.70;;
6755;SDS011;3415;51.148;7.014;2022-10-03T07:00:50;9.50;;;4.50;;
6755;SDS011;3415;51.148;7.014;2022-10-03T07:03:30;6.63;;;4.20;;
6755;SDS011;3415;51.148;7.014;2022-10-03T07:06:20;8.53;;;4.50;;
6755;SDS011;3415;51.148;7.014;2022-10-03T07:12:29;10.80;;;5.13;;
6755;SDS011;3415;51.148;7.014;2022-10-03T07:15:17;8.53;;;4.40;;
6755;SDS011;3415;51.148;7.014;2022-10-03T07:18:20;13.10;;;4.90;;
6755;SDS011;3415;51.148;7.014;2022-10-03T07:27:13;11.83;;;5.00;;
6755;SDS011;3415;51.148;7.014;2022-10-03T07:30:01;11.20;;;6.30;;
6755;SDS011;3415;51.148;7.014;2022-10-03T07:35:53;9.83;;;5.00;;
6755;SDS011;3415;51.148;7.014;2022-10-03T07:45:06;13.67;;;5.27;;
6755;SDS011;3415;51.148;7.014;2022-10-03T07:50:59;14.07;;;5.40;;
6755;SDS011;3415;51.148;7.014;2022-10-03T07:56:49;13.57;;;5.10;;
6755;SDS011;3415;51.148;7.014;2022-10-03T07:59:47;15.20;;;5.80;;
6755;SDS011;3415;51.148;7.014;2022-10-03T08:06:18;15.20;;;10.07;;
6755;SDS011;3415;51.148;7.014;2022-10-03T08:08:53;10.27;;;4.63;;
6755;SDS011;3415;51.148;7.014;2022-10-03T08:11:38;10.10;;;4.80;;
6755;SDS011;3415;51.148;7.014;2022-10-03T08:14:41;12.37;;;4.40;;
6755;SDS011;3415;51.148;7.014;2022-10-03T08:17:22;9.90;;;3.97;;
6755;SDS011;3415;51.148;7.014;2022-10-03T08:23:17;11.10;;;4.50;;
6755;SDS011;3415;51.148;7.014;2022-10-03T08:26:11;15.07;;;4.47;;
6755;SDS011;3415;51.148;7.014;2022-10-03T08:34:50;13.53;;;5.13;;
6755;SDS011;3415;51.148;7.014;2022-10-03T08:37:56;17.83;;;6.17;;
6755;SDS011;3415;51.148;7.014;2022-10-03T08:41:02;10.20;;;4.30;;
6755;SDS011;3415;51.148;7.014;2022-10-03T08:50:40;18.73;;;5.90;;
6755;SDS011;3415;51.148;7.014;2022-10-03T08:53:44;14.00;;;5.37;;
6755;SDS011;3415;51.148;7.014;2022-10-03T08:56:20;10.13;;;4.87;;
6755;SDS011;3415;51.148;7.014;2022-10-03T08:59:13;13.33;;;5.10;;
6755;SDS011;3415;51.148;7.014;2022-10-03T09:05:37;6.13;;;4.00;;
6755;SDS011;3415;51.148;7.014;2022-10-03T09:08:24;9.90;;;4.20;;
6755;SDS011;3415;51.148;7.014;2022-10-03T09:11:26;12.33;;;4.10;;
6755;SDS011;3415;51.148;7.014;2022-10-03T09:14:19;12.83;;;4.13;;
6755;SDS011;3415;51.148;7.014;2022-10-03T09:17:00;8.67;;;4.17;;
6755;SDS011;3415;51.148;7.014;2022-10-03T09:19:52;14.13;;;4.03;;
6755;SDS011;3415;51.148;7.014;2022-10-03T09:22:38;14.33;;;4.77;;
6755;SDS011;3415;51.148;7.014;2022-10-03T09:25:30;16.67;;;7.20;;
6755;SDS011;3415;51.148;7.014;2022-10-03T09:34:32;13.23;;;3.53;;
6755;SDS011;3415;51.148;7.014;2022-10-03T09:37:17;13.17;;;4.33;;
6755;SDS011;3415;51.148;7.014;2022-10-03T09:40:09;12.53;;;3.10;;
6755;SDS011;3415;51.148;7.014;2022-10-03T09:43:05;12.17;;;3.67;;
6755;SDS011;3415;51.148;7.014;2022-10-03T09:45:55;5.70;;;3.40;;
6755;SDS011;3415;51.148;7.014;2022-10-03T09:51:45;6.90;;;3.63;;
6755;SDS011;3415;51.148;7.014;2022-10-03T09:54:34;10.20;;;2.83;;
6755;SDS011;3415;51.148;7.014;2022-10-03T09:57:28;12.10;;;3.37;;
6755;SDS011;3415;51.148;7.014;2022-10-03T10:00:14;8.00;;;3.30;;
6755;SDS011;3415;51.148;7.014;2022-10-03T10:03:02;7.40;;;2.93;;
6755;SDS011;3415;51.148;7.014;2022-10-03T10:09:03;4.70;;;2.83;;
6755;SDS011;3415;51.148;7.014;2022-10-03T10:12:04;10.57;;;2.87;;
6755;SDS011;3415;51.148;7.014;2022-10-03T10:21:27;13.00;;;3.10;;
6755;SDS011;3415;51.148;7.014;2022-10-03T10:24:45;17.43;;;2.50;;
6755;SDS011;3415;51.148;7.014;2022-10-03T10:27:50;6.70;;;2.43;;
6755;SDS011;3415;51.148;7.014;2022-10-03T10:37:06;5.67;;;2.40;;
6755;SDS011;3415;51.148;7.014;2022-10-03T10:46:17;6.50;;;2.13;;
6755;SDS011;3415;51.148;7.014;2022-10-03T11:07:58;5.90;;;1.37;;
6755;SDS011;3415;51.148;7.014;2022-10-03T11:11:09;9.00;;;2.80;;
6755;SDS011;3415;51.148;7.014;2022-10-03T11:14:21;7.07;;;2.70;;
6755;SDS011;3415;51.148;7.014;2022-10-03T11:17:16;5.67;;;1.87;;
6755;SDS011;3415;51.148;7.014;2022-10-03T11:20:11;5.40;;;2.37;;
6755;SDS011;3415;51.148;7.014;2022-10-03T11:23:17;7.90;;;3.60;;
6755;SDS011;3415;51.148;7.014;2022-10-03T11:32:39;6.97;;;1.50;;
6755;SDS011;3415;51.148;7.014;2022-10-03T11:35:40;4.30;;;1.90;;
6755;SDS011;3415;51.148;7.014;2022-10-03T11:38:33;10.27;;;5.73;;
6755;SDS011;3415;51.148;7.014;2022-10-03T11:41:04;3.40;;;1.47;;
6755;SDS011;3415;51.148;7.014;2022-10-03T11:43:58;7.27;;;1.73;;
6755;SDS011;3415;51.148;7.014;2022-10-03T11:46:56;3.97;;;1.50;;
6755;SDS011;3415;51.148;7.014;2022-10-03T11:52:38;7.13;;;2.70;;
6755;SDS011;3415;51.148;7.014;2022-10-03T11:55:19;4.50;;;1.70;;
6755;SDS011;3415;51.148;7.014;2022-10-03T11:57:57;4.47;;;1.63;;
6755;SDS011;3415;51.148;7.014;2022-10-03T12:00:35;22.30;;;3.53;;
6755;SDS011;3415;51.148;7.014;2022-10-03T12:03:10;4.10;;;1.47;;
6755;SDS011;3415;51.148;7.014;2022-10-03T12:05:49;3.27;;;1.60;;
6755;SDS011;3415;51.148;7.014;2022-10-03T12:08:39;3.27;;;1.50;;
6755;SDS011;3415;51.148;7.014;2022-10-03T12:11:19;8.13;;;2.00;;
6755;SDS011;3415;51.148;7.014;2022-10-03T12:14:03;7.97;;;2.90;;
6755;SDS011;3415;51.148;7.014;2022-10-03T12:16:44;2.80;;;1.53;;
6755;SDS011;3415;51.148;7.014;2022-10-03T12:19:24;6.30;;;1.60;;
6755;SDS011;3415;51.148;7.014;2022-10-03T12:21:58;4.20;;;1.90;;
6755;SDS011;3415;51.148;7.014;2022-10-03T12:24:33;4.40;;;1.70;;
6755;SDS011;3415;51.148;7.014;2022-10-03T12:27:06;7.07;;;1.77;;
6755;SDS011;3415;51.148;7.014;2022-10-03T12:29:42;8.10;;;1.57;;
6755;SDS011;3415;51.148;7.014;2022-10-03T12:32:20;4.93;;;1.77;;
6755;SDS011;3415;51.148;7.014;2022-10-03T12:34:59;4.80;;;1.50;;
6755;SDS011;3415;51.148;7.014;2022-10-03T12:37:42;7.40;;;2.53;;
6755;SDS011;3415;51.148;7.014;2022-10-03T12:40:16;3.90;;;1.57;;
6755;SDS011;3415;51.148;7.014;2022-10-03T12:42:52;4.90;;;1.33;;
6755;SDS011;3415;51.148;7.014;2022-10-03T12:45:29;3.23;;;1.37;;
6755;SDS011;3415;51.148;7.014;2022-10-03T12:48:10;9.17;;;2.20;;
6755;SDS011;3415;51.148;7.014;2022-10-03T12:50:50;2.70;;;1.60;;
6755;SDS011;3415;51.148;7.014;2022-10-03T12:53:28;5.30;;;1.73;;
6755;SDS011;3415;51.148;7.014;2022-10-03T12:56:09;4.70;;;1.67;;
6755;SDS011;3415;51.148;7.014;2022-10-03T12:58:45;9.07;;;3.23;;
6755;SDS011;3415;51.148;7.014;2022-10-03T13:01:19;4.30;;;1.77;;
6755;SDS011;3415;51.148;7.014;2022-10-03T13:03:53;5.50;;;2.10;;
6755;SDS011;3415;51.148;7.014;2022-10-03T13:06:30;4.50;;;2.00;;
6755;SDS011;3415;51.148;7.014;2022-10-03T13:11:53;4.10;;;1.77;;
6755;SDS011;3415;51.148;7.014;2022-10-03T13:14:31;5.50;;;2.50;;
6755;SDS011;3415;51.148;7.014;2022-10-03T13:17:11;3.20;;;1.83;;
6755;SDS011;3415;51.148;7.014;2022-10-03T13:19:48;3.77;;;1.80;;
6755;SDS011;3415;51.148;7.014;2022-10-03T13:22:23;3.83;;;1.80;;
6755;SDS011;3415;51.148;7.014;2022-10-03T13:25:00;3.00;;;1.80;;
6755;SDS011;3415;51.148;7.014;2022-10-03T13:27:33;8.07;;;5.77;;
6755;SDS011;3415;51.148;7.014;2022-10-03T13:30:11;4.13;;;2.00;;
6755;SDS011;3415;51.148;7.014;2022-10-03T13:32:43;3.70;;;1.80;;
6755;SDS011;3415;51.148;7.014;2022-10-03T13:35:22;4.40;;;1.93;;
6755;SDS011;3415;51.148;7.014;2022-10-03T13:38:16;4.50;;;2.67;;
6755;SDS011;3415;51.148;7.014;2022-10-03T13:41:04;6.87;;;2.00;;
6755;SDS011;3415;51.148;7.014;2022-10-03T13:43:38;4.23;;;2.53;;
6755;SDS011;3415;51.148;7.014;2022-10-03T13:46:11;3.80;;;2.10;;
6755;SDS011;3415;51.148;7.014;2022-10-03T13:48:40;3.80;;;2.43;;
6755;SDS011;3415;51.148;7.014;2022-10-03T13:51:17;5.87;;;2.10;;
6755;SDS011;3415;51.148;7.014;2022-10-03T13:53:53;6.17;;;2.70;;
6755;SDS011;3415;51.148;7.014;2022-10-03T13:56:36;6.17;;;2.67;;
6755;SDS011;3415;51.148;7.014;2022-10-03T13:59:16;4.07;;;1.90;;
6755;SDS011;3415;51.148;7.014;2022-10-03T14:01:55;5.17;;;2.10;;
6755;SDS011;3415;51.148;7.014;2022-10-03T14:04:36;4.73;;;1.80;;
6755;SDS011;3415;51.148;7.014;2022-10-03T14:07:17;3.23;;;1.30;;
6755;SDS011;3415;51.148;7.014;2022-10-03T14:09:55;4.97;;;1.90;;
6755;SDS011;3415;51.148;7.014;2022-10-03T14:12:39;5.17;;;2.00;;
6755;SDS011;3415;51.148;7.014;2022-10-03T14:15:24;4.90;;;2.57;;
6755;SDS011;3415;51.148;7.014;2022-10-03T14:18:00;2.77;;;1.80;;
6755;SDS011;3415;51.148;7.014;2022-10-03T14:20:37;3.23;;;2.00;;
6755;SDS011;3415;51.148;7.014;2022-10-03T14:23:28;6.40;;;1.90;;
6755;SDS011;3415;51.148;7.014;2022-10-03T14:26:01;2.80;;;1.70;;
6755;SDS011;3415;51.148;7.014;2022-10-03T14:28:35;3.60;;;2.00;;
6755;SDS011;3415;51.148;7.014;2022-10-03T14:31:07;5.70;;;1.80;;
6755;SDS011;3415;51.148;7.014;2022-10-03T14:33:43;4.20;;;1.60;;
6755;SDS011;3415;51.148;7.014;2022-10-03T14:36:20;3.73;;;1.77;;
6755;SDS011;3415;51.148;7.014;2022-10-03T14:39:02;4.33;;;2.00;;
6755;SDS011;3415;51.148;7.014;2022-10-03T14:41:45;5.93;;;2.10;;
6755;SDS011;3415;51.148;7.014;2022-10-03T14:44:33;7.70;;;2.23;;
6755;SDS011;3415;51.148;7.014;2022-10-03T14:47:08;3.43;;;2.00;;
6755;SDS011;3415;51.148;7.014;2022-10-03T14:49:38;6.47;;;2.27;;
6755;SDS011;3415;51.148;7.014;2022-10-03T14:52:24;2.90;;;1.90;;
6755;SDS011;3415;51.148;7.014;2022-10-03T14:54:55;3.93;;;1.63;;
6755;SDS011;3415;51.148;7.014;2022-10-03T14:57:29;3.30;;;1.40;;
6755;SDS011;3415;51.148;7.014;2022-10-03T14:59:59;3.53;;;1.80;;
6755;SDS011;3415;51.148;7.014;2022-10-03T15:02:28;7.27;;;2.80;;
6755;SDS011;3415;51.148;7.014;2022-10-03T15:05:01;4.40;;;2.20;;
6755;SDS011;3415;51.148;7.014;2022-10-03T15:07:35;6.37;;;2.20;;
6755;SDS011;3415;51.148;7.014;2022-10-03T15:10:05;4.17;;;1.97;;
6755;SDS011;3415;51.148;7.014;2022-10-03T15:12:37;4.60;;;2.00;;
6755;SDS011;3415;51.148;7.014;2022-10-03T15:15:12;4.73;;;1.87;;
6755;SDS011;3415;51.148;7.014;2022-10-03T15:17:44;6.03;;;1.90;;
6755;SDS011;3415;51.148;7.014;2022-10-03T15:20:12;10.67;;;2.10;;
6755;SDS011;3415;51.148;7.014;2022-10-03T15:22:46;3.43;;;2.10;;
6755;SDS011;3415;51.148;7.014;2022-10-03T15:25:15;5.37;;;1.73;;
6755;SDS011;3415;51.148;7.014;2022-10-03T15:27:47;5.70;;;2.27;;
6755;SDS011;3415;51.148;7.014;2022-10-03T15:30:21;4.30;;;1.60;;
6755;SDS011;3415;51.148;7.014;2022-10-03T15:32:51;8.00;;;2.10;;
6755;SDS011;3415;51.148;7.014;2022-10-03T15:35:21;8.97;;;2.13;;
6755;SDS011;3415;51.148;7.014;2022-10-03T15:37:52;2.23;;;1.40;;
6755;SDS011;3415;51.148;7.014;2022-10-03T15:40:22;4.77;;;2.00;;
6755;SDS011;3415;51.148;7.014;2022-10-03T15:43:00;13.90;;;2.50;;
6755;SDS011;3415;51.148;7.014;2022-10-03T15:45:33;5.70;;;1.33;;
6755;SDS011;3415;51.148;7.014;2022-10-03T15:48:03;3.50;;;1.20;;
6755;SDS011;3415;51.148;7.014;2022-10-03T15:50:36;7.80;;;1.90;;
6755;SDS011;3415;51.148;7.014;2022-10-03T15:53:08;7.20;;;1.63;;
6755;SDS011;3415;51.148;7.014;2022-10-03T15:55:41;4.20;;;1.23;;
6755;SDS011;3415;51.148;7.014;2022-10-03T15:58:14;7.70;;;1.80;;
6755;SDS011;3415;51.148;7.014;2022-10-03T16:00:47;2.80;;;1.40;;
6755;SDS011;3415;51.148;7.014;2022-10-03T16:03:21;7.20;;;1.67;;
6755;SDS011;3415;51.148;7.014;2022-10-03T16:05:57;5.17;;;1.80;;
6755;SDS011;3415;51.148;7.014;2022-10-03T16:08:29;4.20;;;1.53;;
6755;SDS011;3415;51.148;7.014;2022-10-03T16:11:04;3.50;;;1.70;;
6755;SDS011;3415;51.148;7.014;2022-10-03T16:13:34;5.70;;;1.90;;
6755;SDS011;3415;51.148;7.014;2022-10-03T16:16:08;3.33;;;1.50;;
6755;SDS011;3415;51.148;7.014;2022-10-03T16:18:43;4.20;;;1.30;;
6755;SDS011;3415;51.148;7.014;2022-10-03T16:21:19;16.17;;;1.73;;
6755;SDS011;3415;51.148;7.014;2022-10-03T16:23:57;3.60;;;1.63;;
6755;SDS011;3415;51.148;7.014;2022-10-03T16:26:28;2.47;;;1.50;;
6755;SDS011;3415;51.148;7.014;2022-10-03T16:29:00;2.00;;;1.50;;
6755;SDS011;3415;51.148;7.014;2022-10-03T16:31:38;4.87;;;1.60;;
6755;SDS011;3415;51.148;7.014;2022-10-03T16:34:11;5.43;;;1.80;;
6755;SDS011;3415;51.148;7.014;2022-10-03T16:36:41;4.77;;;1.93;;
6755;SDS011;3415;51.148;7.014;2022-10-03T16:39:15;7.63;;;2.40;;
6755;SDS011;3415;51.148;7.014;2022-10-03T16:41:46;4.47;;;2.00;;
6755;SDS011;3415;51.148;7.014;2022-10-03T16:44:18;4.07;;;2.27;;
6755;SDS011;3415;51.148;7.014;2022-10-03T16:46:50;5.03;;;2.30;;
6755;SDS011;3415;51.148;7.014;2022-10-03T16:49:29;4.43;;;2.20;;
6755;SDS011;3415;51.148;7.014;2022-10-03T16:52:22;8.10;;;2.80;;
6755;SDS011;3415;51.148;7.014;2022-10-03T16:54:56;12.33;;;4.80;;
6755;SDS011;3415;51.148;7.014;2022-10-03T16:57:28;5.73;;;3.60;;
6755;SDS011;3415;51.148;7.014;2022-10-03T17:00:01;8.70;;;3.07;;
6755;SDS011;3415;51.148;7.014;2022-10-03T17:02:33;8.07;;;3.47;;
6755;SDS011;3415;51.148;7.014;2022-10-03T17:05:03;7.27;;;3.60;;
6755;SDS011;3415;51.148;7.014;2022-10-03T17:07:36;13.60;;;3.40;;
6755;SDS011;3415;51.148;7.014;2022-10-03T17:10:05;6.13;;;3.70;;
6755;SDS011;3415;51.148;7.014;2022-10-03T17:12:55;10.23;;;4.60;;
6755;SDS011;3415;51.148;7.014;2022-10-03T17:15:25;10.23;;;4.07;;
6755;SDS011;3415;51.148;7.014;2022-10-03T17:17:56;4.57;;;2.87;;
6755;SDS011;3415;51.148;7.014;2022-10-03T17:20:35;5.50;;;3.10;;
6755;SDS011;3415;51.148;7.014;2022-10-03T17:23:08;11.70;;;3.60;;
6755;SDS011;3415;51.148;7.014;2022-10-03T17:25:41;9.20;;;3.60;;
6755;SDS011;3415;51.148;7.014;2022-10-03T17:28:19;4.70;;;2.90;;
6755;SDS011;3415;51.148;7.014;2022-10-03T17:30:55;8.57;;;3.10;;
6755;SDS011;3415;51.148;7.014;2022-10-03T17:33:28;6.93;;;3.00;;
6755;SDS011;3415;51.148;7.014;2022-10-03T17:36:02;4.73;;;2.97;;
6755;SDS011;3415;51.148;7.014;2022-10-03T17:38:57;6.60;;;3.10;;
6755;SDS011;3415;51.148;7.014;2022-10-03T17:41:30;6.00;;;3.30;;
6755;SDS011;3415;51.148;7.014;2022-10-03T17:44:03;4.90;;;2.90;;
6755;SDS011;3415;51.148;7.014;2022-10-03T17:46:42;6.80;;;3.00;;
6755;SDS011;3415;51.148;7.014;2022-10-03T17:49:23;6.50;;;3.40;;
6755;SDS011;3415;51.148;7.014;2022-10-03T17:52:00;6.90;;;3.00;;
6755;SDS011;3415;51.148;7.014;2022-10-03T17:54:30;5.70;;;3.30;;
6755;SDS011;3415;51.148;7.014;2022-10-03T17:57:01;7.93;;;3.40;;
6755;SDS011;3415;51.148;7.014;2022-10-03T17:59:36;5.87;;;2.57;;
6755;SDS011;3415;51.148;7.014;2022-10-03T18:02:14;6.07;;;2.90;;
6755;SDS011;3415;51.148;7.014;2022-10-03T18:04:46;6.83;;;3.30;;
6755;SDS011;3415;51.148;7.014;2022-10-03T18:07:23;5.97;;;3.13;;
6755;SDS011;3415;51.148;7.014;2022-10-03T18:09:53;11.20;;;3.60;;
6755;SDS011;3415;51.148;7.014;2022-10-03T18:12:22;8.70;;;3.47;;
6755;SDS011;3415;51.148;7.014;2022-10-03T18:15:04;7.40;;;3.57;;
6755;SDS011;3415;51.148;7.014;2022-10-03T18:17:53;11.03;;;3.30;;
6755;SDS011;3415;51.148;7.014;2022-10-03T18:23:23;9.43;;;3.97;;
6755;SDS011;3415;51.148;7.014;2022-10-03T18:26:01;8.40;;;3.87;;
6755;SDS011;3415;51.148;7.014;2022-10-03T18:28:32;13.80;;;4.80;;
6755;SDS011;3415;51.148;7.014;2022-10-03T18:31:01;11.53;;;3.70;;
6755;SDS011;3415;51.148;7.014;2022-10-03T18:33:33;6.63;;;3.77;;
6755;SDS011;3415;51.148;7.014;2022-10-03T18:36:14;7.07;;;4.13;;
6755;SDS011;3415;51.148;7.014;2022-10-03T18:38:45;7.77;;;4.00;;
6755;SDS011;3415;51.148;7.014;2022-10-03T18:41:13;8.70;;;4.20;;
6755;SDS011;3415;51.148;7.014;2022-10-03T18:43:43;8.13;;;4.67;;
6755;SDS011;3415;51.148;7.014;2022-10-03T18:46:15;8.50;;;4.67;;
6755;SDS011;3415;51.148;7.014;2022-10-03T18:48:47;8.47;;;4.53;;
6755;SDS011;3415;51.148;7.014;2022-10-03T18:51:23;7.53;;;3.93;;
6755;SDS011;3415;51.148;7.014;2022-10-03T18:53:57;8.03;;;4.00;;
6755;SDS011;3415;51.148;7.014;2022-10-03T18:56:27;6.40;;;3.70;;
6755;SDS011;3415;51.148;7.014;2022-10-03T18:58:59;9.60;;;3.97;;
6755;SDS011;3415;51.148;7.014;2022-10-03T19:01:39;12.80;;;4.93;;
6755;SDS011;3415;51.148;7.014;2022-10-03T19:04:21;8.23;;;4.20;;
6755;SDS011;3415;51.148;7.014;2022-10-03T19:07:00;7.60;;;4.30;;
6755;SDS011;3415;51.148;7.014;2022-10-03T19:09:37;11.77;;;5.07;;
6755;SDS011;3415;51.148;7.014;2022-10-03T19:12:08;8.77;;;5.40;;